NC49 weather

Boyd Field
Grimesland, North Carolina, United States

Public forecast

Using degrees Fahrenheit for public forecast. Weather courtesy of forecast.io.

Closest aviation weather report (METAR) to Boyd Field

Closest report is Warren Field, 7.6 nm (14.1 km) ENE. Retrieved 2019/10/21 02:35 UTC (0 seconds ago):

KOCW 210235Z AUTO 32006G15KT 3SM BR OVC006 15/14 A2989 RMK AO2 T01500141

Closest aviation forecast (TAF) to Boyd Field

Closest forecast is Pitt Greenville Airport, 11.2 nm (20.8 km) NW. Retrieved 2019-10-21 00:30 UTC (2 hours ago):

TAF KPGV 202327Z 2100/2124 32007KT 5SM BR SCT008 OVC012 TEMPO 2100/2102 OVC006 FM210200 32004KT 5SM BR OVC006 FM211500 35004KT P6SM BKN015 FM211800 VRB03KT P6SM SCT025 AMD LTD TO CLD VIS AND WIND